sensor_id;sensor_type;location;lat;lon;timestamp;P1;durP1;ratioP1;P2;durP2;ratioP2
8046;SDS011;74083;42.516;23.358;2024-03-08T00:02:26;3.53;;;2.90;;
8046;SDS011;74083;42.516;23.358;2024-03-08T00:05:14;3.13;;;2.80;;
8046;SDS011;74083;42.516;23.358;2024-03-08T00:08:02;2.80;;;2.60;;
8046;SDS011;74083;42.516;23.358;2024-03-08T00:10:48;3.10;;;2.80;;
8046;SDS011;74083;42.516;23.358;2024-03-08T00:13:34;3.00;;;2.80;;
8046;SDS011;74083;42.516;23.358;2024-03-08T00:16:20;3.20;;;2.90;;
8046;SDS011;74083;42.516;23.358;2024-03-08T00:19:07;3.20;;;2.90;;
8046;SDS011;74083;42.516;23.358;2024-03-08T00:21:54;3.00;;;2.80;;
8046;SDS011;74083;42.516;23.358;2024-03-08T00:24:40;3.40;;;3.10;;
8046;SDS011;74083;42.516;23.358;2024-03-08T00:27:25;3.03;;;2.73;;
8046;SDS011;74083;42.516;23.358;2024-03-08T00:30:11;2.80;;;2.60;;
8046;SDS011;74083;42.516;23.358;2024-03-08T00:32:58;3.83;;;3.00;;
8046;SDS011;74083;42.516;23.358;2024-03-08T00:35:43;3.10;;;2.90;;
8046;SDS011;74083;42.516;23.358;2024-03-08T00:38:30;2.93;;;2.73;;
8046;SDS011;74083;42.516;23.358;2024-03-08T00:41:17;3.20;;;2.90;;
8046;SDS011;74083;42.516;23.358;2024-03-08T00:44:03;3.10;;;2.80;;
8046;SDS011;74083;42.516;23.358;2024-03-08T00:46:49;3.10;;;2.80;;
8046;SDS011;74083;42.516;23.358;2024-03-08T00:49:34;3.77;;;2.77;;
8046;SDS011;74083;42.516;23.358;2024-03-08T00:52:20;3.30;;;3.00;;
8046;SDS011;74083;42.516;23.358;2024-03-08T00:55:09;2.83;;;2.63;;
8046;SDS011;74083;42.516;23.358;2024-03-08T00:57:56;3.00;;;2.80;;
8046;SDS011;74083;42.516;23.358;2024-03-08T01:00:41;3.27;;;2.97;;
8046;SDS011;74083;42.516;23.358;2024-03-08T01:03:28;3.10;;;2.80;;
8046;SDS011;74083;42.516;23.358;2024-03-08T01:06:15;3.00;;;2.80;;
8046;SDS011;74083;42.516;23.358;2024-03-08T01:09:01;3.00;;;2.80;;
8046;SDS011;74083;42.516;23.358;2024-03-08T01:11:52;3.40;;;3.10;;
8046;SDS011;74083;42.516;23.358;2024-03-08T01:14:38;3.97;;;3.67;;
8046;SDS011;74083;42.516;23.358;2024-03-08T01:17:24;3.70;;;3.30;;
8046;SDS011;74083;42.516;23.358;2024-03-08T01:20:10;4.40;;;4.00;;
8046;SDS011;74083;42.516;23.358;2024-03-08T01:22:56;3.97;;;3.63;;
8046;SDS011;74083;42.516;23.358;2024-03-08T01:25:41;4.20;;;3.80;;
8046;SDS011;74083;42.516;23.358;2024-03-08T01:28:29;4.20;;;3.80;;
8046;SDS011;74083;42.516;23.358;2024-03-08T01:31:15;4.17;;;3.77;;
8046;SDS011;74083;42.516;23.358;2024-03-08T01:34:01;4.10;;;3.70;;
8046;SDS011;74083;42.516;23.358;2024-03-08T01:36:47;4.00;;;3.60;;
8046;SDS011;74083;42.516;23.358;2024-03-08T01:39:32;3.77;;;3.47;;
8046;SDS011;74083;42.516;23.358;2024-03-08T01:42:18;4.00;;;3.60;;
8046;SDS011;74083;42.516;23.358;2024-03-08T01:45:06;3.70;;;3.40;;
8046;SDS011;74083;42.516;23.358;2024-03-08T01:47:52;3.50;;;3.20;;
8046;SDS011;74083;42.516;23.358;2024-03-08T01:50:37;3.40;;;3.10;;
8046;SDS011;74083;42.516;23.358;2024-03-08T01:53:24;3.80;;;3.50;;
8046;SDS011;74083;42.516;23.358;2024-03-08T01:56:11;3.90;;;3.60;;
8046;SDS011;74083;42.516;23.358;2024-03-08T01:58:57;3.17;;;2.93;;
8046;SDS011;74083;42.516;23.358;2024-03-08T02:01:46;3.90;;;3.50;;
8046;SDS011;74083;42.516;23.358;2024-03-08T02:04:31;3.60;;;3.30;;
8046;SDS011;74083;42.516;23.358;2024-03-08T02:07:18;3.70;;;3.40;;
8046;SDS011;74083;42.516;23.358;2024-03-08T02:10:04;3.97;;;3.60;;
8046;SDS011;74083;42.516;23.358;2024-03-08T02:12:51;3.77;;;3.47;;
8046;SDS011;74083;42.516;23.358;2024-03-08T02:15:49;3.70;;;3.40;;
8046;SDS011;74083;42.516;23.358;2024-03-08T02:18:37;3.77;;;3.47;;
8046;SDS011;74083;42.516;23.358;2024-03-08T02:21:24;3.50;;;3.20;;
8046;SDS011;74083;42.516;23.358;2024-03-08T02:24:10;3.63;;;3.33;;
8046;SDS011;74083;42.516;23.358;2024-03-08T02:26:55;3.87;;;3.57;;
8046;SDS011;74083;42.516;23.358;2024-03-08T02:29:41;3.57;;;3.27;;
8046;SDS011;74083;42.516;23.358;2024-03-08T02:32:28;3.53;;;3.23;;
8046;SDS011;74083;42.516;23.358;2024-03-08T02:35:16;3.40;;;3.10;;
8046;SDS011;74083;42.516;23.358;2024-03-08T02:38:03;3.30;;;3.00;;
8046;SDS011;74083;42.516;23.358;2024-03-08T02:40:50;3.50;;;3.20;;
8046;SDS011;74083;42.516;23.358;2024-03-08T02:43:36;3.20;;;2.90;;
8046;SDS011;74083;42.516;23.358;2024-03-08T02:46:22;2.90;;;2.70;;
8046;SDS011;74083;42.516;23.358;2024-03-08T02:49:08;3.20;;;3.00;;
8046;SDS011;74083;42.516;23.358;2024-03-08T02:51:55;3.07;;;2.80;;
8046;SDS011;74083;42.516;23.358;2024-03-08T02:54:42;2.87;;;2.67;;
8046;SDS011;74083;42.516;23.358;2024-03-08T02:57:28;2.73;;;2.50;;
8046;SDS011;74083;42.516;23.358;2024-03-08T03:00:14;3.80;;;2.70;;
8046;SDS011;74083;42.516;23.358;2024-03-08T03:03:00;2.67;;;2.47;;
8046;SDS011;74083;42.516;23.358;2024-03-08T03:05:46;2.70;;;2.50;;
8046;SDS011;74083;42.516;23.358;2024-03-08T03:08:33;2.80;;;2.60;;
8046;SDS011;74083;42.516;23.358;2024-03-08T03:11:20;3.03;;;2.40;;
8046;SDS011;74083;42.516;23.358;2024-03-08T03:14:06;2.57;;;2.37;;
8046;SDS011;74083;42.516;23.358;2024-03-08T03:16:53;2.30;;;2.20;;
8046;SDS011;74083;42.516;23.358;2024-03-08T03:19:40;2.60;;;2.40;;
8046;SDS011;74083;42.516;23.358;2024-03-08T03:22:26;2.67;;;2.47;;
8046;SDS011;74083;42.516;23.358;2024-03-08T03:25:14;2.70;;;2.50;;
8046;SDS011;74083;42.516;23.358;2024-03-08T03:28:08;2.70;;;2.50;;
8046;SDS011;74083;42.516;23.358;2024-03-08T03:30:54;2.90;;;2.70;;
8046;SDS011;74083;42.516;23.358;2024-03-08T03:33:42;2.57;;;2.37;;
8046;SDS011;74083;42.516;23.358;2024-03-08T03:36:28;2.20;;;2.10;;
8046;SDS011;74083;42.516;23.358;2024-03-08T03:39:14;2.60;;;2.40;;
8046;SDS011;74083;42.516;23.358;2024-03-08T03:42:03;2.57;;;2.37;;
8046;SDS011;74083;42.516;23.358;2024-03-08T03:44:51;2.93;;;2.20;;
8046;SDS011;74083;42.516;23.358;2024-03-08T03:47:37;2.37;;;2.20;;
8046;SDS011;74083;42.516;23.358;2024-03-08T03:50:22;2.30;;;2.17;;
8046;SDS011;74083;42.516;23.358;2024-03-08T03:53:08;2.50;;;2.30;;
8046;SDS011;74083;42.516;23.358;2024-03-08T03:55:53;2.30;;;2.10;;
8046;SDS011;74083;42.516;23.358;2024-03-08T03:58:39;2.03;;;1.93;;
8046;SDS011;74083;42.516;23.358;2024-03-08T04:01:26;2.30;;;2.20;;
8046;SDS011;74083;42.516;23.358;2024-03-08T04:04:13;2.10;;;2.00;;
8046;SDS011;74083;42.516;23.358;2024-03-08T04:06:59;2.03;;;1.93;;
8046;SDS011;74083;42.516;23.358;2024-03-08T04:09:46;2.00;;;1.90;;
8046;SDS011;74083;42.516;23.358;2024-03-08T04:12:31;1.90;;;1.80;;
8046;SDS011;74083;42.516;23.358;2024-03-08T04:15:16;1.90;;;1.80;;
8046;SDS011;74083;42.516;23.358;2024-03-08T04:18:04;2.23;;;2.03;;
8046;SDS011;74083;42.516;23.358;2024-03-08T04:20:50;2.27;;;2.10;;
8046;SDS011;74083;42.516;23.358;2024-03-08T04:23:35;2.20;;;2.10;;
8046;SDS011;74083;42.516;23.358;2024-03-08T04:26:20;2.13;;;2.03;;
8046;SDS011;74083;42.516;23.358;2024-03-08T04:29:06;2.00;;;1.90;;
8046;SDS011;74083;42.516;23.358;2024-03-08T04:31:51;2.70;;;1.90;;
8046;SDS011;74083;42.516;23.358;2024-03-08T04:34:39;2.10;;;2.00;;
8046;SDS011;74083;42.516;23.358;2024-03-08T04:37:25;2.10;;;2.00;;
8046;SDS011;74083;42.516;23.358;2024-03-08T04:40:13;2.27;;;2.10;;
8046;SDS011;74083;42.516;23.358;2024-03-08T04:42:58;2.10;;;2.00;;
8046;SDS011;74083;42.516;23.358;2024-03-08T04:45:44;2.10;;;2.00;;
8046;SDS011;74083;42.516;23.358;2024-03-08T04:48:29;2.10;;;1.90;;
8046;SDS011;74083;42.516;23.358;2024-03-08T04:51:17;2.40;;;2.20;;
8046;SDS011;74083;42.516;23.358;2024-03-08T04:54:03;2.00;;;1.90;;
8046;SDS011;74083;42.516;23.358;2024-03-08T04:56:49;2.40;;;2.20;;
8046;SDS011;74083;42.516;23.358;2024-03-08T04:59:35;2.13;;;2.00;;
8046;SDS011;74083;42.516;23.358;2024-03-08T05:02:21;2.23;;;2.00;;
8046;SDS011;74083;42.516;23.358;2024-03-08T05:05:07;2.27;;;2.17;;
8046;SDS011;74083;42.516;23.358;2024-03-08T05:07:57;2.30;;;2.10;;
8046;SDS011;74083;42.516;23.358;2024-03-08T05:10:42;2.27;;;2.07;;
8046;SDS011;74083;42.516;23.358;2024-03-08T05:13:28;2.63;;;2.43;;
8046;SDS011;74083;42.516;23.358;2024-03-08T05:16:14;2.67;;;2.47;;
8046;SDS011;74083;42.516;23.358;2024-03-08T05:19:00;2.90;;;2.70;;
8046;SDS011;74083;42.516;23.358;2024-03-08T05:21:46;2.60;;;2.40;;
8046;SDS011;74083;42.516;23.358;2024-03-08T05:24:33;2.70;;;2.50;;
8046;SDS011;74083;42.516;23.358;2024-03-08T05:27:19;2.50;;;2.30;;
8046;SDS011;74083;42.516;23.358;2024-03-08T05:30:05;2.73;;;2.53;;
8046;SDS011;74083;42.516;23.358;2024-03-08T05:32:58;2.83;;;2.63;;
8046;SDS011;74083;42.516;23.358;2024-03-08T05:35:43;2.63;;;2.43;;
8046;SDS011;74083;42.516;23.358;2024-03-08T05:38:29;2.60;;;2.40;;
8046;SDS011;74083;42.516;23.358;2024-03-08T05:41:16;2.63;;;2.43;;
8046;SDS011;74083;42.516;23.358;2024-03-08T05:44:02;2.37;;;2.17;;
8046;SDS011;74083;42.516;23.358;2024-03-08T05:46:48;2.50;;;2.30;;
8046;SDS011;74083;42.516;23.358;2024-03-08T05:49:34;2.33;;;2.17;;
8046;SDS011;74083;42.516;23.358;2024-03-08T05:52:20;2.23;;;2.10;;
8046;SDS011;74083;42.516;23.358;2024-03-08T05:55:05;2.20;;;2.10;;
8046;SDS011;74083;42.516;23.358;2024-03-08T05:57:55;2.43;;;2.23;;
8046;SDS011;74083;42.516;23.358;2024-03-08T06:00:40;2.43;;;2.23;;
8046;SDS011;74083;42.516;23.358;2024-03-08T06:03:26;2.40;;;2.20;;
8046;SDS011;74083;42.516;23.358;2024-03-08T06:06:12;2.60;;;2.40;;
8046;SDS011;74083;42.516;23.358;2024-03-08T06:08:58;2.37;;;2.20;;
8046;SDS011;74083;42.516;23.358;2024-03-08T06:11:43;2.80;;;2.40;;
8046;SDS011;74083;42.516;23.358;2024-03-08T06:14:30;2.70;;;2.50;;
8046;SDS011;74083;42.516;23.358;2024-03-08T06:17:16;2.80;;;2.60;;
8046;SDS011;74083;42.516;23.358;2024-03-08T06:20:01;2.73;;;2.53;;
8046;SDS011;74083;42.516;23.358;2024-03-08T06:22:54;2.97;;;2.77;;
8046;SDS011;74083;42.516;23.358;2024-03-08T06:25:39;3.43;;;2.90;;
8046;SDS011;74083;42.516;23.358;2024-03-08T06:28:25;3.20;;;3.00;;
8046;SDS011;74083;42.516;23.358;2024-03-08T06:31:12;3.00;;;2.80;;
8046;SDS011;74083;42.516;23.358;2024-03-08T06:33:58;3.10;;;2.83;;
8046;SDS011;74083;42.516;23.358;2024-03-08T06:36:44;2.70;;;2.50;;
8046;SDS011;74083;42.516;23.358;2024-03-08T06:39:29;2.87;;;2.67;;
8046;SDS011;74083;42.516;23.358;2024-03-08T06:42:16;3.10;;;2.90;;
8046;SDS011;74083;42.516;23.358;2024-03-08T06:45:01;2.50;;;2.30;;
8046;SDS011;74083;42.516;23.358;2024-03-08T06:47:50;2.70;;;2.50;;
8046;SDS011;74083;42.516;23.358;2024-03-08T06:50:36;3.00;;;2.80;;
8046;SDS011;74083;42.516;23.358;2024-03-08T06:53:21;2.30;;;2.20;;
8046;SDS011;74083;42.516;23.358;2024-03-08T06:56:08;2.27;;;2.17;;
8046;SDS011;74083;42.516;23.358;2024-03-08T06:58:54;2.30;;;2.20;;
8046;SDS011;74083;42.516;23.358;2024-03-08T07:01:39;2.90;;;2.70;;
8046;SDS011;74083;42.516;23.358;2024-03-08T07:04:26;2.70;;;2.50;;
8046;SDS011;74083;42.516;23.358;2024-03-08T07:07:13;2.80;;;2.60;;
8046;SDS011;74083;42.516;23.358;2024-03-08T07:09:58;3.00;;;2.80;;
8046;SDS011;74083;42.516;23.358;2024-03-08T07:12:44;2.60;;;2.40;;
8046;SDS011;74083;42.516;23.358;2024-03-08T07:15:30;2.63;;;2.43;;
8046;SDS011;74083;42.516;23.358;2024-03-08T07:18:16;2.93;;;2.73;;
8046;SDS011;74083;42.516;23.358;2024-03-08T07:21:03;2.80;;;2.60;;
8046;SDS011;74083;42.516;23.358;2024-03-08T07:23:49;2.83;;;2.63;;
8046;SDS011;74083;42.516;23.358;2024-03-08T07:26:57;2.90;;;2.70;;
8046;SDS011;74083;42.516;23.358;2024-03-08T07:29:43;2.60;;;2.40;;
8046;SDS011;74083;42.516;23.358;2024-03-08T07:32:28;2.60;;;2.40;;
8046;SDS011;74083;42.516;23.358;2024-03-08T07:35:15;2.80;;;2.60;;
8046;SDS011;74083;42.516;23.358;2024-03-08T07:38:04;2.40;;;2.20;;
8046;SDS011;74083;42.516;23.358;2024-03-08T07:40:51;2.73;;;2.53;;
8046;SDS011;74083;42.516;23.358;2024-03-08T07:43:36;2.40;;;2.30;;
8046;SDS011;74083;42.516;23.358;2024-03-08T07:46:21;2.60;;;2.40;;
8046;SDS011;74083;42.516;23.358;2024-03-08T07:49:07;2.40;;;2.30;;
8046;SDS011;74083;42.516;23.358;2024-03-08T07:51:54;2.63;;;2.43;;
8046;SDS011;74083;42.516;23.358;2024-03-08T07:54:41;2.80;;;2.60;;
8046;SDS011;74083;42.516;23.358;2024-03-08T07:57:27;2.87;;;2.57;;
8046;SDS011;74083;42.516;23.358;2024-03-08T08:00:13;3.00;;;2.80;;
8046;SDS011;74083;42.516;23.358;2024-03-08T08:03:01;2.70;;;2.50;;
8046;SDS011;74083;42.516;23.358;2024-03-08T08:05:47;3.00;;;2.80;;
8046;SDS011;74083;42.516;23.358;2024-03-08T08:08:33;2.77;;;2.57;;
8046;SDS011;74083;42.516;23.358;2024-03-08T08:11:19;2.90;;;2.60;;
8046;SDS011;74083;42.516;23.358;2024-03-08T08:14:05;2.83;;;2.63;;
8046;SDS011;74083;42.516;23.358;2024-03-08T08:16:53;3.20;;;2.90;;
8046;SDS011;74083;42.516;23.358;2024-03-08T08:19:40;2.90;;;2.70;;
8046;SDS011;74083;42.516;23.358;2024-03-08T08:22:27;3.00;;;2.80;;
8046;SDS011;74083;42.516;23.358;2024-03-08T08:25:12;3.30;;;3.00;;
8046;SDS011;74083;42.516;23.358;2024-03-08T08:28:00;2.93;;;2.73;;
8046;SDS011;74083;42.516;23.358;2024-03-08T08:30:47;3.10;;;2.80;;
8046;SDS011;74083;42.516;23.358;2024-03-08T08:33:33;3.10;;;2.80;;
8046;SDS011;74083;42.516;23.358;2024-03-08T08:36:20;2.90;;;2.70;;
8046;SDS011;74083;42.516;23.358;2024-03-08T08:39:05;3.67;;;2.80;;
8046;SDS011;74083;42.516;23.358;2024-03-08T08:41:57;3.13;;;2.93;;
8046;SDS011;74083;42.516;23.358;2024-03-08T08:44:44;3.17;;;2.97;;
8046;SDS011;74083;42.516;23.358;2024-03-08T08:47:30;3.80;;;3.50;;
8046;SDS011;74083;42.516;23.358;2024-03-08T08:50:15;3.50;;;3.20;;
8046;SDS011;74083;42.516;23.358;2024-03-08T08:53:06;3.40;;;3.10;;
8046;SDS011;74083;42.516;23.358;2024-03-08T08:55:52;3.60;;;3.30;;
8046;SDS011;74083;42.516;23.358;2024-03-08T08:58:37;3.93;;;3.53;;
8046;SDS011;74083;42.516;23.358;2024-03-08T09:01:25;4.17;;;3.77;;
8046;SDS011;74083;42.516;23.358;2024-03-08T09:04:10;3.73;;;3.43;;
8046;SDS011;74083;42.516;23.358;2024-03-08T09:06:56;3.73;;;3.33;;
8046;SDS011;74083;42.516;23.358;2024-03-08T09:09:42;3.60;;;3.30;;
8046;SDS011;74083;42.516;23.358;2024-03-08T09:12:28;4.17;;;3.83;;
8046;SDS011;74083;42.516;23.358;2024-03-08T09:15:15;4.00;;;3.70;;
8046;SDS011;74083;42.516;23.358;2024-03-08T09:18:03;3.73;;;3.43;;
8046;SDS011;74083;42.516;23.358;2024-03-08T09:20:50;4.37;;;3.97;;
8046;SDS011;74083;42.516;23.358;2024-03-08T09:23:37;4.20;;;3.90;;
8046;SDS011;74083;42.516;23.358;2024-03-08T09:26:24;4.50;;;4.10;;
8046;SDS011;74083;42.516;23.358;2024-03-08T09:29:10;4.40;;;4.00;;
8046;SDS011;74083;42.516;23.358;2024-03-08T09:31:55;4.10;;;3.77;;
8046;SDS011;74083;42.516;23.358;2024-03-08T09:34:42;4.53;;;4.13;;
8046;SDS011;74083;42.516;23.358;2024-03-08T09:37:28;4.20;;;3.90;;
8046;SDS011;74083;42.516;23.358;2024-03-08T09:40:14;4.50;;;4.10;;
8046;SDS011;74083;42.516;23.358;2024-03-08T09:43:03;4.10;;;3.70;;
8046;SDS011;74083;42.516;23.358;2024-03-08T09:45:49;4.20;;;3.80;;
8046;SDS011;74083;42.516;23.358;2024-03-08T09:48:35;3.97;;;3.67;;
8046;SDS011;74083;42.516;23.358;2024-03-08T09:51:27;4.23;;;3.83;;
8046;SDS011;74083;42.516;23.358;2024-03-08T09:54:14;3.97;;;3.67;;
8046;SDS011;74083;42.516;23.358;2024-03-08T09:57:01;4.37;;;3.97;;
8046;SDS011;74083;42.516;23.358;2024-03-08T09:59:49;3.90;;;3.60;;
8046;SDS011;74083;42.516;23.358;2024-03-08T10:02:35;3.50;;;3.20;;
8046;SDS011;74083;42.516;23.358;2024-03-08T10:05:21;3.73;;;3.43;;
8046;SDS011;74083;42.516;23.358;2024-03-08T10:08:08;3.90;;;3.60;;
8046;SDS011;74083;42.516;23.358;2024-03-08T10:10:54;3.50;;;3.20;;
8046;SDS011;74083;42.516;23.358;2024-03-08T10:13:42;3.77;;;3.47;;
8046;SDS011;74083;42.516;23.358;2024-03-08T10:16:30;3.60;;;3.30;;
8046;SDS011;74083;42.516;23.358;2024-03-08T10:19:15;3.90;;;3.50;;
8046;SDS011;74083;42.516;23.358;2024-03-08T10:22:01;3.87;;;3.57;;
8046;SDS011;74083;42.516;23.358;2024-03-08T10:24:50;4.70;;;3.67;;
8046;SDS011;74083;42.516;23.358;2024-03-08T10:27:36;3.97;;;3.57;;
8046;SDS011;74083;42.516;23.358;2024-03-08T10:30:21;4.27;;;3.93;;
8046;SDS011;74083;42.516;23.358;2024-03-08T10:33:07;4.00;;;3.70;;
8046;SDS011;74083;42.516;23.358;2024-03-08T10:35:53;3.90;;;3.60;;
8046;SDS011;74083;42.516;23.358;2024-03-08T10:38:40;4.00;;;3.70;;
8046;SDS011;74083;42.516;23.358;2024-03-08T10:41:32;5.80;;;3.80;;
8046;SDS011;74083;42.516;23.358;2024-03-08T10:44:23;4.40;;;3.93;;
8046;SDS011;74083;42.516;23.358;2024-03-08T10:47:25;4.30;;;3.90;;
8046;SDS011;74083;42.516;23.358;2024-03-08T10:50:16;3.97;;;3.67;;
8046;SDS011;74083;42.516;23.358;2024-03-08T10:53:05;5.60;;;4.83;;
8046;SDS011;74083;42.516;23.358;2024-03-08T10:55:51;4.30;;;3.90;;
8046;SDS011;74083;42.516;23.358;2024-03-08T10:58:39;4.70;;;4.30;;
8046;SDS011;74083;42.516;23.358;2024-03-08T11:01:25;4.43;;;4.03;;
8046;SDS011;74083;42.516;23.358;2024-03-08T11:04:11;4.60;;;4.20;;
8046;SDS011;74083;42.516;23.358;2024-03-08T11:07:00;4.47;;;3.87;;
8046;SDS011;74083;42.516;23.358;2024-03-08T11:09:50;4.40;;;4.00;;
8046;SDS011;74083;42.516;23.358;2024-03-08T11:12:36;4.50;;;4.10;;
8046;SDS011;74083;42.516;23.358;2024-03-08T11:15:24;4.87;;;4.20;;
8046;SDS011;74083;42.516;23.358;2024-03-08T11:18:09;6.13;;;4.43;;
8046;SDS011;74083;42.516;23.358;2024-03-08T11:20:56;4.27;;;3.87;;
8046;SDS011;74083;42.516;23.358;2024-03-08T11:23:42;4.50;;;3.97;;
8046;SDS011;74083;42.516;23.358;2024-03-08T11:26:28;4.33;;;3.87;;
8046;SDS011;74083;42.516;23.358;2024-03-08T11:29:34;4.10;;;3.70;;
8046;SDS011;74083;42.516;23.358;2024-03-08T11:32:26;4.30;;;3.90;;
8046;SDS011;74083;42.516;23.358;2024-03-08T11:35:17;4.20;;;3.80;;
8046;SDS011;74083;42.516;23.358;2024-03-08T11:38:04;5.27;;;3.80;;
8046;SDS011;74083;42.516;23.358;2024-03-08T11:40:50;4.23;;;3.83;;
8046;SDS011;74083;42.516;23.358;2024-03-08T11:43:35;4.90;;;4.27;;
8046;SDS011;74083;42.516;23.358;2024-03-08T11:46:24;4.00;;;3.70;;
8046;SDS011;74083;42.516;23.358;2024-03-08T11:49:13;4.30;;;3.90;;
8046;SDS011;74083;42.516;23.358;2024-03-08T11:51:59;4.47;;;3.90;;
8046;SDS011;74083;42.516;23.358;2024-03-08T11:54:48;4.23;;;3.90;;
8046;SDS011;74083;42.516;23.358;2024-03-08T11:57:37;3.73;;;3.43;;
8046;SDS011;74083;42.516;23.358;2024-03-08T12:00:22;4.03;;;3.70;;
8046;SDS011;74083;42.516;23.358;2024-03-08T12:03:10;4.03;;;3.63;;
8046;SDS011;74083;42.516;23.358;2024-03-08T12:05:58;4.37;;;3.97;;
8046;SDS011;74083;42.516;23.358;2024-03-08T12:08:45;4.07;;;3.73;;
8046;SDS011;74083;42.516;23.358;2024-03-08T12:11:32;4.27;;;3.87;;
8046;SDS011;74083;42.516;23.358;2024-03-08T12:14:19;4.30;;;3.90;;
8046;SDS011;74083;42.516;23.358;2024-03-08T12:17:06;4.07;;;3.70;;
8046;SDS011;74083;42.516;23.358;2024-03-08T12:19:53;4.77;;;4.00;;
8046;SDS011;74083;42.516;23.358;2024-03-08T12:22:42;4.30;;;3.90;;
8046;SDS011;74083;42.516;23.358;2024-03-08T12:25:28;3.80;;;3.50;;
8046;SDS011;74083;42.516;23.358;2024-03-08T12:28:18;4.17;;;3.77;;
8046;SDS011;74083;42.516;23.358;2024-03-08T12:31:06;4.07;;;3.73;;
8046;SDS011;74083;42.516;23.358;2024-03-08T12:33:54;4.37;;;3.97;;
8046;SDS011;74083;42.516;23.358;2024-03-08T12:36:46;4.10;;;3.70;;
8046;SDS011;74083;42.516;23.358;2024-03-08T12:39:34;3.90;;;3.60;;
8046;SDS011;74083;42.516;23.358;2024-03-08T12:42:21;4.40;;;4.00;;
8046;SDS011;74083;42.516;23.358;2024-03-08T12:45:07;4.13;;;3.83;;
8046;SDS011;74083;42.516;23.358;2024-03-08T12:47:54;4.60;;;3.73;;
8046;SDS011;74083;42.516;23.358;2024-03-08T12:50:40;4.60;;;4.20;;
8046;SDS011;74083;42.516;23.358;2024-03-08T12:53:29;4.13;;;3.73;;
8046;SDS011;74083;42.516;23.358;2024-03-08T12:56:19;4.77;;;3.40;;
8046;SDS011;74083;42.516;23.358;2024-03-08T12:59:14;4.03;;;3.63;;
8046;SDS011;74083;42.516;23.358;2024-03-08T13:01:59;3.73;;;3.43;;
8046;SDS011;74083;42.516;23.358;2024-03-08T13:04:45;3.83;;;3.53;;
8046;SDS011;74083;42.516;23.358;2024-03-08T13:07:39;4.87;;;3.87;;
8046;SDS011;74083;42.516;23.358;2024-03-08T13:10:25;3.77;;;3.47;;
8046;SDS011;74083;42.516;23.358;2024-03-08T13:13:12;4.33;;;3.60;;
8046;SDS011;74083;42.516;23.358;2024-03-08T13:16:00;4.00;;;3.60;;
8046;SDS011;74083;42.516;23.358;2024-03-08T13:18:47;4.97;;;3.50;;
8046;SDS011;74083;42.516;23.358;2024-03-08T13:21:33;3.80;;;3.50;;
8046;SDS011;74083;42.516;23.358;2024-03-08T13:24:19;3.57;;;3.27;;
8046;SDS011;74083;42.516;23.358;2024-03-08T13:27:06;3.47;;;3.17;;
8046;SDS011;74083;42.516;23.358;2024-03-08T13:30:04;4.00;;;3.60;;
8046;SDS011;74083;42.516;23.358;2024-03-08T13:32:54;3.97;;;3.50;;
8046;SDS011;74083;42.516;23.358;2024-03-08T13:35:39;3.63;;;3.33;;
8046;SDS011;74083;42.516;23.358;2024-03-08T13:38:25;4.30;;;3.60;;
8046;SDS011;74083;42.516;23.358;2024-03-08T13:41:11;3.83;;;3.53;;
8046;SDS011;74083;42.516;23.358;2024-03-08T13:43:58;3.43;;;3.13;;
8046;SDS011;74083;42.516;23.358;2024-03-08T13:46:46;3.50;;;3.20;;
8046;SDS011;74083;42.516;23.358;2024-03-08T13:49:35;3.73;;;3.43;;
8046;SDS011;74083;42.516;23.358;2024-03-08T13:52:20;3.60;;;3.30;;
8046;SDS011;74083;42.516;23.358;2024-03-08T13:55:08;3.60;;;3.30;;
8046;SDS011;74083;42.516;23.358;2024-03-08T13:57:55;4.43;;;3.70;;
8046;SDS011;74083;42.516;23.358;2024-03-08T14:00:43;3.77;;;3.47;;
8046;SDS011;74083;42.516;23.358;2024-03-08T14:03:33;4.03;;;3.63;;
8046;SDS011;74083;42.516;23.358;2024-03-08T14:06:19;3.50;;;3.20;;
8046;SDS011;74083;42.516;23.358;2024-03-08T14:09:08;3.93;;;3.53;;
8046;SDS011;74083;42.516;23.358;2024-03-08T14:11:58;3.57;;;3.27;;
8046;SDS011;74083;42.516;23.358;2024-03-08T14:14:45;3.90;;;3.47;;
8046;SDS011;74083;42.516;23.358;2024-03-08T14:17:31;3.80;;;3.37;;
8046;SDS011;74083;42.516;23.358;2024-03-08T14:20:19;4.20;;;3.60;;
8046;SDS011;74083;42.516;23.358;2024-03-08T14:23:08;3.50;;;3.20;;
8046;SDS011;74083;42.516;23.358;2024-03-08T14:25:56;3.77;;;3.47;;
8046;SDS011;74083;42.516;23.358;2024-03-08T14:28:43;4.67;;;3.27;;
8046;SDS011;74083;42.516;23.358;2024-03-08T14:31:30;4.10;;;3.00;;
8046;SDS011;74083;42.516;23.358;2024-03-08T14:34:15;3.60;;;3.30;;
8046;SDS011;74083;42.516;23.358;2024-03-08T14:37:03;4.90;;;3.10;;
8046;SDS011;74083;42.516;23.358;2024-03-08T14:39:52;4.00;;;3.23;;
8046;SDS011;74083;42.516;23.358;2024-03-08T14:42:41;3.33;;;3.07;;
8046;SDS011;74083;42.516;23.358;2024-03-08T14:45:28;3.40;;;3.10;;
8046;SDS011;74083;42.516;23.358;2024-03-08T14:48:14;3.87;;;3.23;;
8046;SDS011;74083;42.516;23.358;2024-03-08T14:51:00;3.23;;;2.93;;
8046;SDS011;74083;42.516;23.358;2024-03-08T14:53:49;3.50;;;3.20;;
8046;SDS011;74083;42.516;23.358;2024-03-08T14:56:34;3.60;;;3.30;;
8046;SDS011;74083;42.516;23.358;2024-03-08T14:59:20;3.83;;;3.43;;
8046;SDS011;74083;42.516;23.358;2024-03-08T15:02:05;4.50;;;3.20;;
8046;SDS011;74083;42.516;23.358;2024-03-08T15:04:51;3.50;;;3.20;;
8046;SDS011;74083;42.516;23.358;2024-03-08T15:07:41;3.27;;;3.00;;
8046;SDS011;74083;42.516;23.358;2024-03-08T15:10:28;3.40;;;3.10;;
8046;SDS011;74083;42.516;23.358;2024-03-08T15:13:17;3.53;;;3.23;;
8046;SDS011;74083;42.516;23.358;2024-03-08T15:16:07;3.40;;;3.10;;
8046;SDS011;74083;42.516;23.358;2024-03-08T15:18:58;3.27;;;2.97;;
8046;SDS011;74083;42.516;23.358;2024-03-08T15:21:46;3.80;;;3.50;;
8046;SDS011;74083;42.516;23.358;2024-03-08T15:24:34;3.30;;;3.00;;
8046;SDS011;74083;42.516;23.358;2024-03-08T15:27:22;3.33;;;3.03;;
8046;SDS011;74083;42.516;23.358;2024-03-08T15:30:08;3.60;;;3.30;;
8046;SDS011;74083;42.516;23.358;2024-03-08T15:32:57;3.57;;;3.27;;
8046;SDS011;74083;42.516;23.358;2024-03-08T15:35:44;4.40;;;3.43;;
8046;SDS011;74083;42.516;23.358;2024-03-08T15:38:34;3.97;;;3.63;;
8046;SDS011;74083;42.516;23.358;2024-03-08T15:41:20;3.50;;;3.20;;
8046;SDS011;74083;42.516;23.358;2024-03-08T15:44:07;5.33;;;3.70;;
8046;SDS011;74083;42.516;23.358;2024-03-08T15:46:56;3.40;;;3.10;;
8046;SDS011;74083;42.516;23.358;2024-03-08T15:49:42;3.50;;;3.20;;
8046;SDS011;74083;42.516;23.358;2024-03-08T15:52:28;3.73;;;3.30;;
8046;SDS011;74083;42.516;23.358;2024-03-08T15:55:14;3.50;;;3.20;;
8046;SDS011;74083;42.516;23.358;2024-03-08T15:58:03;3.93;;;3.27;;
8046;SDS011;74083;42.516;23.358;2024-03-08T16:00:51;3.97;;;3.43;;
8046;SDS011;74083;42.516;23.358;2024-03-08T16:03:37;3.93;;;3.53;;
8046;SDS011;74083;42.516;23.358;2024-03-08T16:06:23;3.50;;;3.20;;
8046;SDS011;74083;42.516;23.358;2024-03-08T16:09:08;4.00;;;3.30;;
8046;SDS011;74083;42.516;23.358;2024-03-08T16:11:57;3.63;;;3.33;;
8046;SDS011;74083;42.516;23.358;2024-03-08T16:14:43;3.73;;;3.43;;
8046;SDS011;74083;42.516;23.358;2024-03-08T16:17:30;3.70;;;3.40;;
8046;SDS011;74083;42.516;23.358;2024-03-08T16:20:16;3.50;;;3.20;;
8046;SDS011;74083;42.516;23.358;2024-03-08T16:23:03;3.97;;;3.57;;
8046;SDS011;74083;42.516;23.358;2024-03-08T16:25:49;3.93;;;3.53;;
8046;SDS011;74083;42.516;23.358;2024-03-08T16:28:36;3.70;;;3.40;;
8046;SDS011;74083;42.516;23.358;2024-03-08T16:31:25;4.57;;;4.17;;
8046;SDS011;74083;42.516;23.358;2024-03-08T16:34:12;4.47;;;4.07;;
8046;SDS011;74083;42.516;23.358;2024-03-08T16:37:00;4.40;;;4.00;;
8046;SDS011;74083;42.516;23.358;2024-03-08T16:39:46;4.23;;;3.83;;
8046;SDS011;74083;42.516;23.358;2024-03-08T16:42:32;4.10;;;3.70;;
8046;SDS011;74083;42.516;23.358;2024-03-08T16:45:17;4.03;;;3.60;;
8046;SDS011;74083;42.516;23.358;2024-03-08T16:48:04;4.37;;;3.93;;